Time;durP1;ratioP1;P1;durP2;ratioP2;P2;SDS_P1;SDS_P2;PMS_P1;PMS_P2;Temp;Humidity;BMP_temperature;BMP_pressure;BME280_temperature;BME280_humidity;BME280_pressure;Samples;Min_cycle;Max_cycle;Signal;HPM_P1;HPM_P2
2021/04/18 00:01:06;;;;;;;23.90;21.25;;;10.10;99.90;;;;;;5038007;28;20033;-77
2021/04/18 00:03:32;;;;;;;26.27;23.48;;;10.10;99.90;;;;;;5041995;28;20027;-79
2021/04/18 00:05:58;;;;;;;24.35;21.35;;;10.00;99.90;;;;;;5036187;28;20036;-79
2021/04/18 00:08:23;;;;;;;28.23;20.05;;;10.00;99.90;;;;;;5043697;28;20021;-78
2021/04/18 00:10:49;;;;;;;26.25;23.48;;;10.00;99.90;;;;;;5042897;28;20026;-78
2021/04/18 00:13:15;;;;;;;29.13;22.98;;;10.00;99.90;;;;;;5043265;28;20479;-79
2021/04/18 00:15:42;;;;;;;25.13;21.88;;;10.00;99.90;;;;;;5041318;28;20379;-78
2021/04/18 00:18:12;;;;;;;27.23;24.48;;;10.00;99.90;;;;;;5047110;28;20092;-78
2021/04/18 00:20:38;;;;;;;25.98;22.05;;;10.00;99.90;;;;;;5043928;28;20021;-78
2021/04/18 00:23:04;;;;;;;27.15;23.48;;;10.00;99.90;;;;;;5043912;28;20030;-77
2021/04/18 00:25:31;;;;;;;25.70;22.60;;;10.00;99.90;;;;;;5036966;28;20100;-78
2021/04/18 00:27:57;;;;;;;27.63;22.58;;;10.00;99.90;;;;;;5043329;28;20068;-79
2021/04/18 00:30:23;;;;;;;22.13;18.25;;;10.00;99.90;;;;;;5044970;28;20079;-79
2021/04/18 00:32:50;;;;;;;26.33;22.60;;;10.10;99.90;;;;;;5033635;28;20087;-79
2021/04/18 00:35:19;;;;;;;25.30;22.67;;;10.10;99.90;;;;;;5042373;28;20052;-79
2021/04/18 00:37:45;;;;;;;20.65;18.45;;;10.00;99.90;;;;;;5039749;28;20074;-79
2021/04/18 00:40:14;;;;;;;30.20;25.48;;;10.00;99.90;;;;;;5048441;28;20026;-79
2021/04/18 00:42:41;;;;;;;23.35;20.65;;;10.00;99.90;;;;;;5046515;28;20127;-79
2021/04/18 00:45:09;;;;;;;26.00;20.58;;;10.00;99.90;;;;;;5034597;28;20079;-78
2021/04/18 00:47:39;;;;;;;27.92;21.75;;;10.00;99.90;;;;;;5041386;28;20044;-78
2021/04/18 00:50:05;;;;;;;25.10;19.75;;;9.90;99.90;;;;;;5034553;28;20109;-79
2021/04/18 00:52:31;;;;;;;27.35;20.77;;;9.90;99.90;;;;;;5037878;28;20064;-78
2021/04/18 00:54:57;;;;;;;26.80;20.77;;;10.00;99.90;;;;;;5039171;28;20049;-79
2021/04/18 00:57:23;;;;;;;27.70;23.00;;;10.00;99.90;;;;;;5024397;28;20037;-79
2021/04/18 00:59:51;;;;;;;23.58;20.70;;;10.00;99.90;;;;;;5035532;28;20071;-78
2021/04/18 01:02:17;;;;;;;23.92;21.38;;;9.90;99.90;;;;;;5046915;28;20107;-79
2021/04/18 01:04:43;;;;;;;30.73;22.30;;;10.00;99.90;;;;;;5041790;28;20044;-78
2021/04/18 01:07:08;;;;;;;27.83;21.73;;;9.90;99.90;;;;;;5043099;28;20021;-79
2021/04/18 01:09:35;;;;;;;26.42;20.10;;;9.90;99.90;;;;;;5043431;28;20044;-79
2021/04/18 01:12:00;;;;;;;25.63;19.63;;;9.90;99.90;;;;;;5038515;28;20403;-79
2021/04/18 01:14:26;;;;;;;25.98;21.30;;;9.90;99.90;;;;;;5044272;28;20112;-79
2021/04/18 01:16:52;;;;;;;24.40;20.67;;;9.90;99.90;;;;;;5034596;28;20100;-79
2021/04/18 01:19:18;;;;;;;26.20;22.10;;;9.90;99.90;;;;;;5047533;28;20490;-79
2021/04/18 01:21:43;;;;;;;23.77;20.73;;;9.90;99.90;;;;;;5040338;28;20095;-79
2021/04/18 01:24:09;;;;;;;26.52;21.73;;;9.90;99.90;;;;;;5043904;28;20013;-79
2021/04/18 01:26:35;;;;;;;24.23;21.80;;;9.90;99.90;;;;;;5044031;28;20034;-79
2021/04/18 01:29:04;;;;;;;23.30;20.60;;;9.90;99.90;;;;;;5039580;28;20033;-78
2021/04/18 01:31:30;;;;;;;22.02;18.63;;;9.90;99.90;;;;;;5037353;28;20017;-77
2021/04/18 01:33:56;;;;;;;30.73;20.67;;;9.90;99.90;;;;;;5044541;28;20059;-77
2021/04/18 01:36:22;;;;;;;27.27;21.35;;;9.90;99.90;;;;;;5044448;28;20022;-79
2021/04/18 01:38:49;;;;;;;24.30;19.83;;;9.90;99.90;;;;;;5036771;28;20028;-78
2021/04/18 01:41:14;;;;;;;29.13;21.35;;;9.80;99.90;;;;;;5040811;28;20050;-78
2021/04/18 01:43:41;;;;;;;27.38;22.48;;;9.80;99.90;;;;;;5034569;28;20033;-78
2021/04/18 01:46:07;;;;;;;25.17;21.35;;;9.90;99.90;;;;;;5039711;28;20067;-78
2021/04/18 01:48:34;;;;;;;24.25;21.05;;;9.80;99.90;;;;;;5032091;28;20061;-78
2021/04/18 01:51:05;;;;;;;25.23;20.48;;;9.80;99.90;;;;;;5021473;28;20025;-78
2021/04/18 01:53:31;;;;;;;29.73;20.95;;;9.80;99.90;;;;;;5037789;28;20025;-80
2021/04/18 01:55:57;;;;;;;26.33;22.13;;;9.80;99.90;;;;;;5032903;28;20100;-78
2021/04/18 01:58:23;;;;;;;23.60;20.92;;;9.80;99.90;;;;;;5036364;28;20038;-79
2021/04/18 02:00:49;;;;;;;25.52;21.02;;;9.70;99.90;;;;;;5046017;28;20039;-78
2021/04/18 02:03:14;;;;;;;24.83;22.13;;;9.80;99.90;;;;;;5045405;28;20026;-77
2021/04/18 02:05:40;;;;;;;23.00;20.50;;;9.70;99.90;;;;;;5032291;28;20074;-78
2021/04/18 02:08:06;;;;;;;22.48;20.17;;;9.70;99.90;;;;;;5035571;28;20426;-77
2021/04/18 02:10:32;;;;;;;24.52;21.67;;;9.70;99.90;;;;;;5042549;28;20037;-79
2021/04/18 02:12:58;;;;;;;24.65;21.00;;;9.70;99.90;;;;;;5044702;28;20022;-80
2021/04/18 02:15:23;;;;;;;23.33;20.95;;;9.70;99.90;;;;;;5039061;28;20124;-77
2021/04/18 02:17:49;;;;;;;26.20;22.35;;;9.60;99.90;;;;;;5041741;28;20041;-78
2021/04/18 02:20:16;;;;;;;24.52;21.60;;;9.60;99.90;;;;;;5032450;28;20045;-78
2021/04/18 02:22:44;;;;;;;23.33;20.83;;;9.60;99.90;;;;;;5017159;28;20032;-79
2021/04/18 02:25:10;;;;;;;25.52;22.55;;;9.50;99.90;;;;;;5040750;28;20021;-79
2021/04/18 02:27:36;;;;;;;23.92;21.35;;;9.40;99.90;;;;;;5039146;28;20646;-78
2021/04/18 02:30:04;;;;;;;24.42;22.02;;;9.30;99.90;;;;;;5044599;28;20123;-77
2021/04/18 02:32:30;;;;;;;23.98;21.10;;;9.30;99.90;;;;;;5040854;28;20017;-78
2021/04/18 02:34:56;;;;;;;25.10;21.55;;;9.30;99.90;;;;;;5040002;28;20028;-78
2021/04/18 02:37:21;;;;;;;23.25;20.70;;;9.30;99.90;;;;;;5050373;28;20017;-79
2021/04/18 02:39:47;;;;;;;33.67;24.05;;;9.20;99.90;;;;;;5041743;28;20132;-78
2021/04/18 02:42:13;;;;;;;30.73;23.38;;;9.10;99.90;;;;;;5027740;28;20394;-79
2021/04/18 02:44:39;;;;;;;23.40;20.80;;;9.20;99.90;;;;;;5037257;28;20032;-77
2021/04/18 02:47:05;;;;;;;22.63;20.23;;;9.10;99.90;;;;;;5043199;28;20117;-78
2021/04/18 02:49:31;;;;;;;22.95;19.60;;;9.10;99.90;;;;;;5020044;28;20075;-77
2021/04/18 02:51:57;;;;;;;25.75;21.73;;;9.00;99.90;;;;;;5016788;28;20029;-78
2021/04/18 02:54:23;;;;;;;23.92;21.27;;;9.00;99.90;;;;;;5039766;28;20040;-77
2021/04/18 02:56:49;;;;;;;24.55;21.67;;;8.90;99.90;;;;;;5046582;28;20032;-77
2021/04/18 02:59:15;;;;;;;26.38;20.23;;;9.10;99.90;;;;;;5041301;28;20029;-78
2021/04/18 03:01:41;;;;;;;23.67;20.33;;;9.10;99.90;;;;;;5042921;28;20025;-78
2021/04/18 03:04:07;;;;;;;23.92;18.75;;;9.10;99.90;;;;;;5028442;28;20078;-78
2021/04/18 03:06:36;;;;;;;25.00;19.55;;;9.20;99.90;;;;;;5044940;28;20410;-78
2021/04/18 03:09:03;;;;;;;27.30;19.98;;;9.20;99.90;;;;;;5044099;28;20025;-79
2021/04/18 03:11:29;;;;;;;22.25;19.60;;;9.10;99.90;;;;;;5044883;28;20033;-78
2021/04/18 03:13:55;;;;;;;23.48;20.08;;;9.10;99.90;;;;;;5044675;28;20084;-78
2021/04/18 03:16:20;;;;;;;23.80;20.63;;;9.00;99.90;;;;;;5029229;28;20023;-77
2021/04/18 03:18:46;;;;;;;25.20;20.17;;;9.10;99.90;;;;;;5042030;28;20030;-78
2021/04/18 03:21:12;;;;;;;24.95;20.10;;;9.00;99.90;;;;;;5052659;28;20107;-79
2021/04/18 03:23:38;;;;;;;21.95;19.65;;;9.00;99.90;;;;;;5045305;28;20025;-78
2021/04/18 03:26:04;;;;;;;23.83;21.30;;;9.00;99.90;;;;;;5045344;28;20091;-78
2021/04/18 03:28:30;;;;;;;30.48;22.13;;;9.00;99.90;;;;;;5041334;28;20423;-78
2021/04/18 03:30:56;;;;;;;22.50;20.10;;;9.00;99.90;;;;;;5036676;28;20037;-78
2021/04/18 03:33:23;;;;;;;24.15;19.70;;;9.00;99.90;;;;;;5034323;28;20029;-77
2021/04/18 03:35:48;;;;;;;24.88;19.50;;;9.00;99.90;;;;;;5045678;28;20021;-79
2021/04/18 03:38:14;;;;;;;23.00;19.15;;;9.00;99.90;;;;;;5048099;28;20088;-78
2021/04/18 03:40:41;;;;;;;26.70;20.52;;;9.00;99.90;;;;;;5041947;28;20057;-77
2021/04/18 03:43:07;;;;;;;22.00;18.63;;;9.00;99.90;;;;;;5045347;28;20033;-78
2021/04/18 03:45:33;;;;;;;22.20;18.35;;;9.20;99.90;;;;;;5044440;28;20483;-79
2021/04/18 03:47:59;;;;;;;23.50;17.95;;;9.10;99.90;;;;;;5046641;28;20052;-79
2021/04/18 03:50:24;;;;;;;21.55;18.75;;;9.10;99.90;;;;;;5054550;28;20742;-76
2021/04/18 03:52:55;;;;;;;20.95;18.27;;;9.00;99.90;;;;;;5038942;28;20097;-77
2021/04/18 03:55:21;;;;;;;22.55;20.20;;;9.00;99.90;;;;;;5041481;28;20026;-77
2021/04/18 03:57:47;;;;;;;22.85;18.35;;;9.10;99.90;;;;;;5034915;28;20497;-76
2021/04/18 04:00:13;;;;;;;24.77;19.67;;;9.10;99.90;;;;;;5042517;28;20016;-78
2021/04/18 04:02:38;;;;;;;15.18;13.57;;;9.10;99.90;;;;;;5026813;28;20025;-78
2021/04/18 04:05:05;;;;;;;20.60;17.65;;;9.10;99.90;;;;;;5051090;28;20474;-77
2021/04/18 04:07:30;;;;;;;19.30;16.95;;;9.00;99.90;;;;;;5038649;28;20036;-77
2021/04/18 04:09:56;;;;;;;23.05;20.13;;;9.00;99.90;;;;;;5045879;28;20036;-78
2021/04/18 04:12:24;;;;;;;20.80;18.60;;;9.00;99.90;;;;;;5037412;28;20087;-78
2021/04/18 04:14:51;;;;;;;21.67;19.60;;;9.00;99.90;;;;;;5043549;28;20019;-79
2021/04/18 04:17:17;;;;;;;19.85;17.75;;;8.90;99.90;;;;;;5040385;28;20115;-78
2021/04/18 04:19:43;;;;;;;21.83;17.65;;;8.80;99.90;;;;;;5037844;28;20539;-78
2021/04/18 04:22:08;;;;;;;24.50;19.38;;;8.80;99.90;;;;;;5029294;28;20033;-79
2021/04/18 04:24:34;;;;;;;20.83;18.50;;;8.70;99.90;;;;;;5039613;28;20026;-77
2021/04/18 04:27:00;;;;;;;20.23;18.08;;;9.00;99.90;;;;;;5032296;28;20399;-79
2021/04/18 04:29:26;;;;;;;26.40;19.33;;;9.00;99.90;;;;;;5042564;28;20032;-77
2021/04/18 04:31:51;;;;;;;19.52;17.42;;;9.10;99.90;;;;;;5024735;28;20030;-78
2021/04/18 04:34:17;;;;;;;20.35;17.40;;;9.10;99.90;;;;;;5037631;28;20049;-79
2021/04/18 04:36:43;;;;;;;20.38;16.77;;;9.10;99.90;;;;;;5022171;28;20099;-78
2021/04/18 04:39:09;;;;;;;21.63;19.35;;;9.00;99.90;;;;;;5025104;28;20028;-78
2021/04/18 04:41:35;;;;;;;20.13;17.92;;;9.00;99.90;;;;;;5031517;28;20029;-77
2021/04/18 04:44:01;;;;;;;19.17;17.20;;;9.00;99.90;;;;;;5036475;28;20036;-78
2021/04/18 04:46:26;;;;;;;19.88;17.50;;;9.00;99.90;;;;;;5044809;28;20108;-78
2021/04/18 04:48:52;;;;;;;19.05;16.92;;;9.00;99.90;;;;;;5032906;28;20499;-78
2021/04/18 04:51:18;;;;;;;24.30;18.88;;;9.10;99.90;;;;;;5043026;28;20021;-77
2021/04/18 04:53:44;;;;;;;19.92;17.70;;;9.10;99.90;;;;;;5044833;28;20029;-79
2021/04/18 04:56:10;;;;;;;21.10;17.00;;;9.10;99.90;;;;;;5051768;28;20043;-76
2021/04/18 04:58:35;;;;;;;19.75;16.60;;;9.20;99.90;;;;;;5026234;28;20043;-77
2021/04/18 05:01:01;;;;;;;19.02;17.02;;;9.20;99.90;;;;;;5037971;28;20032;-78
2021/04/18 05:03:27;;;;;;;21.25;16.70;;;9.30;99.90;;;;;;5043469;28;20024;-78
2021/04/18 05:05:54;;;;;;;19.33;17.20;;;9.40;99.90;;;;;;5050095;28;20043;-78
2021/04/18 05:08:21;;;;;;;19.88;17.83;;;9.40;99.90;;;;;;5040212;28;20383;-78
2021/04/18 05:10:47;;;;;;;20.33;17.38;;;9.40;99.90;;;;;;5039645;28;20064;-78
2021/04/18 05:13:13;;;;;;;19.23;17.23;;;9.50;99.90;;;;;;5045032;28;20041;-78
2021/04/18 05:15:39;;;;;;;17.33;15.63;;;9.50;99.90;;;;;;5044321;28;20081;-78
2021/04/18 05:18:05;;;;;;;19.67;16.63;;;9.60;99.90;;;;;;5045715;28;20064;-78
2021/04/18 05:20:31;;;;;;;20.13;17.45;;;9.60;99.90;;;;;;5044924;28;20123;-77
2021/04/18 05:22:58;;;;;;;22.45;17.02;;;9.60;99.90;;;;;;5037476;28;20078;-78
2021/04/18 05:25:24;;;;;;;18.27;16.40;;;9.60;99.90;;;;;;5032963;28;20105;-78
2021/04/18 05:27:50;;;;;;;19.35;17.30;;;9.60;99.90;;;;;;5040554;28;20103;-80
2021/04/18 05:30:16;;;;;;;20.42;17.83;;;9.70;99.90;;;;;;5039924;28;20373;-77
2021/04/18 05:32:42;;;;;;;18.48;16.55;;;9.70;99.90;;;;;;5045903;28;20025;-78
2021/04/18 05:35:09;;;;;;;20.52;16.23;;;9.80;99.90;;;;;;5040921;28;20020;-79
2021/04/18 05:37:34;;;;;;;18.65;16.58;;;9.90;99.90;;;;;;5043889;28;20505;-79
2021/04/18 05:40:00;;;;;;;18.08;16.17;;;9.90;99.90;;;;;;5042088;28;20029;-79
2021/04/18 05:42:26;;;;;;;18.65;16.60;;;10.00;99.90;;;;;;5020634;28;20640;-78
2021/04/18 05:44:52;;;;;;;20.83;17.75;;;10.10;99.90;;;;;;5046165;28;20059;-77
2021/04/18 05:47:18;;;;;;;19.67;17.63;;;10.20;99.90;;;;;;5041391;28;20021;-79
2021/04/18 05:49:44;;;;;;;21.73;16.45;;;10.30;99.90;;;;;;5043890;28;20037;-77
2021/04/18 05:52:09;;;;;;;19.10;15.77;;;10.30;99.90;;;;;;5045951;28;20427;-79
2021/04/18 05:54:35;;;;;;;18.08;16.05;;;10.30;99.90;;;;;;5035727;28;20557;-80
2021/04/18 05:57:01;;;;;;;21.17;17.13;;;10.30;99.90;;;;;;5041249;28;20435;-79
2021/04/18 05:59:27;;;;;;;20.30;16.40;;;10.40;99.90;;;;;;5041020;28;20025;-78
2021/04/18 06:01:53;;;;;;;18.27;16.42;;;10.60;99.90;;;;;;5022071;28;20115;-78
2021/04/18 06:04:19;;;;;;;17.40;14.82;;;10.80;99.90;;;;;;5034665;28;20021;-79
2021/04/18 06:06:44;;;;;;;19.30;16.70;;;10.90;99.90;;;;;;5041335;28;20654;-78
2021/04/18 06:09:10;;;;;;;22.90;18.10;;;11.10;99.90;;;;;;5045542;28;20055;-79
2021/04/18 06:11:36;;;;;;;19.85;17.75;;;11.20;99.90;;;;;;5035823;28;20044;-79
2021/04/18 06:14:01;;;;;;;18.17;16.27;;;11.30;99.90;;;;;;5034676;28;20049;-78
2021/04/18 06:16:27;;;;;;;19.05;16.30;;;11.50;99.90;;;;;;5039217;28;20475;-79
2021/04/18 06:18:53;;;;;;;20.23;16.90;;;11.50;99.90;;;;;;5041763;28;20022;-80
2021/04/18 06:21:19;;;;;;;19.27;16.98;;;11.50;99.90;;;;;;5036172;28;20027;-78
2021/04/18 06:23:44;;;;;;;19.65;15.95;;;11.50;99.90;;;;;;5033386;28;20044;-78
2021/04/18 06:26:10;;;;;;;17.63;13.73;;;11.50;99.90;;;;;;5014646;28;20093;-80
2021/04/18 06:28:36;;;;;;;15.90;14.30;;;11.50;99.90;;;;;;5015137;28;20030;-79
2021/04/18 06:31:02;;;;;;;16.67;14.98;;;11.40;99.90;;;;;;5032723;28;20029;-79
2021/04/18 06:33:28;;;;;;;18.55;15.15;;;11.40;99.90;;;;;;5032262;28;20034;-78
2021/04/18 06:35:54;;;;;;;17.38;14.63;;;11.20;99.90;;;;;;5034427;28;20079;-80
2021/04/18 06:38:19;;;;;;;17.63;15.15;;;11.30;99.90;;;;;;5036299;28;20025;-80
2021/04/18 06:40:46;;;;;;;18.13;15.18;;;11.40;99.90;;;;;;5035656;28;20515;-79
2021/04/18 06:43:12;;;;;;;19.23;15.10;;;11.50;99.90;;;;;;5036142;28;20711;-80
2021/04/18 06:45:39;;;;;;;19.48;15.52;;;11.60;99.90;;;;;;5035983;28;20032;-80
2021/04/18 06:48:06;;;;;;;16.95;15.32;;;11.70;99.90;;;;;;5037491;28;20034;-79
2021/04/18 06:50:32;;;;;;;18.50;16.10;;;11.80;99.90;;;;;;5037455;28;20064;-80
2021/04/18 06:52:58;;;;;;;18.25;16.27;;;11.90;99.90;;;;;;5037748;28;20026;-80
2021/04/18 06:55:28;;;;;;;19.33;14.77;;;12.00;99.90;;;;;;5020120;28;20032;-80
2021/04/18 06:57:54;;;;;;;16.77;14.55;;;12.20;99.90;;;;;;5039639;28;20083;-77
2021/04/18 07:00:21;;;;;;;15.15;12.90;;;12.20;99.90;;;;;;5034739;28;20033;-77
2021/04/18 07:02:47;;;;;;;19.15;16.02;;;12.00;99.90;;;;;;5035283;28;20396;-79
2021/04/18 07:05:14;;;;;;;14.30;12.85;;;11.70;99.90;;;;;;5034726;28;20024;-79
2021/04/18 07:07:41;;;;;;;15.32;12.52;;;11.70;99.90;;;;;;5035614;28;20022;-70
2021/04/18 07:10:13;;;;;;;17.40;14.90;;;11.80;99.90;;;;;;5033909;28;20025;-70
2021/04/18 07:12:42;;;;;;;14.30;12.95;;;11.70;99.90;;;;;;5034270;28;20530;-72
2021/04/18 07:15:08;;;;;;;17.88;14.68;;;11.60;99.90;;;;;;5016149;28;20032;-71
2021/04/18 07:17:48;;;;;;;15.68;14.00;;;11.70;99.90;;;;;;5033951;28;20028;-71
2021/04/18 07:20:17;;;;;;;16.40;12.85;;;11.60;99.90;;;;;;5033926;28;20021;-72
2021/04/18 07:22:43;;;;;;;15.65;14.13;;;11.70;99.90;;;;;;5015334;28;20491;-72
2021/04/18 07:25:09;;;;;;;17.38;12.88;;;12.00;99.90;;;;;;5033323;28;20033;-70
2021/04/18 07:27:52;;;;;;;13.70;12.30;;;12.30;99.90;;;;;;5034513;28;20029;-71
2021/04/18 07:30:23;;;;;;;14.75;13.18;;;12.20;99.90;;;;;;5015509;28;20036;-70
2021/04/18 07:33:08;;;;;;;22.30;15.15;;;12.00;99.90;;;;;;5023500;28;20049;-71
2021/04/18 07:35:35;;;;;;;16.65;12.57;;;12.10;99.90;;;;;;5024662;28;20026;-70
2021/04/18 07:38:24;;;;;;;14.38;12.88;;;12.00;99.90;;;;;;5033732;28;20483;-70
2021/04/18 07:40:53;;;;;;;14.02;12.65;;;12.10;99.90;;;;;;5015821;28;20032;-71
2021/04/18 07:43:19;;;;;;;29.77;14.75;;;12.10;99.90;;;;;;5032997;28;20026;-70
2021/04/18 07:45:48;;;;;;;14.60;13.18;;;12.20;99.90;;;;;;5032333;28;20108;-71
2021/04/18 07:48:18;;;;;;;15.15;12.77;;;12.30;99.90;;;;;;5033098;28;20032;-70
2021/04/18 07:50:46;;;;;;;13.43;11.73;;;12.50;99.90;;;;;;5032266;28;20109;-72
2021/04/18 07:53:18;;;;;;;12.50;11.30;;;12.50;99.90;;;;;;5017769;28;20025;-71
2021/04/18 07:55:45;;;;;;;15.65;13.68;;;12.30;99.90;;;;;;5033160;28;20030;-74
2021/04/18 07:58:11;;;;;;;14.88;12.95;;;12.20;99.90;;;;;;5033797;28;20025;-72
2021/04/18 08:00:38;;;;;;;14.50;12.07;;;12.30;99.90;;;;;;5032686;28;20053;-71
2021/04/18 08:03:04;;;;;;;13.43;10.55;;;12.30;99.90;;;;;;5032082;28;20058;-71
2021/04/18 08:05:32;;;;;;;18.27;12.48;;;12.50;99.90;;;;;;5032858;28;20025;-70
2021/04/18 08:08:08;;;;;;;16.27;13.32;;;12.50;99.90;;;;;;5032719;28;20487;-70
2021/04/18 08:10:38;;;;;;;15.02;11.75;;;12.50;99.90;;;;;;5032820;28;20167;-71
2021/04/18 08:13:12;;;;;;;14.90;13.00;;;12.10;99.90;;;;;;5032856;28;20026;-70
2021/04/18 08:16:02;;;;;;;14.70;12.20;;;11.90;99.90;;;;;;5032899;28;20684;-70
2021/04/18 08:18:36;;;;;;;12.80;10.40;;;11.90;99.90;;;;;;5018624;28;20136;-71
2021/04/18 08:21:03;;;;;;;14.20;11.80;;;11.90;99.90;;;;;;5032562;28;20031;-71
2021/04/18 08:23:37;;;;;;;13.73;9.43;;;11.90;99.90;;;;;;5031287;28;20080;-71
2021/04/18 08:26:09;;;;;;;12.80;11.32;;;11.90;99.90;;;;;;5032960;28;20126;-71
2021/04/18 08:28:58;;;;;;;15.00;12.35;;;12.10;99.90;;;;;;5031426;28;20312;-71
2021/04/18 08:31:25;;;;;;;13.35;11.65;;;12.40;99.90;;;;;;5008723;28;20040;-72
2021/04/18 08:33:53;;;;;;;12.68;11.48;;;12.40;99.90;;;;;;5031870;28;20036;-72
2021/04/18 08:36:22;;;;;;;13.15;10.90;;;12.40;99.90;;;;;;5035464;28;20024;-72
2021/04/18 08:39:07;;;;;;;13.00;11.43;;;12.60;99.90;;;;;;5036906;28;20022;-72
2021/04/18 08:41:39;;;;;;;12.45;10.85;;;12.70;99.90;;;;;;5011639;28;20583;-72
2021/04/18 08:44:17;;;;;;;13.45;12.18;;;12.40;99.90;;;;;;5013282;28;20037;-72
2021/04/18 08:46:44;;;;;;;13.50;11.40;;;12.50;99.90;;;;;;5030447;28;20079;-69
2021/04/18 08:49:11;;;;;;;11.15;10.05;;;12.50;99.90;;;;;;5033647;28;20029;-79
2021/04/18 08:51:38;;;;;;;12.77;11.48;;;12.40;99.90;;;;;;5034037;28;20100;-77
2021/04/18 08:54:05;;;;;;;11.60;10.13;;;12.10;99.90;;;;;;5034438;28;20125;-78
2021/04/18 08:56:55;;;;;;;11.80;10.35;;;12.10;99.90;;;;;;5033517;28;20036;-78
2021/04/18 08:59:21;;;;;;;13.60;12.20;;;12.00;99.90;;;;;;5016679;28;20033;-78
2021/04/18 09:02:01;;;;;;;15.40;9.50;;;11.90;99.90;;;;;;4997726;28;20022;-79
2021/04/18 09:04:28;;;;;;;16.90;8.90;;;11.90;99.90;;;;;;5016131;28;20033;-79
2021/04/18 09:06:55;;;;;;;13.30;11.23;;;11.90;99.90;;;;;;5015101;28;20025;-81
2021/04/18 09:09:23;;;;;;;13.48;11.13;;;12.00;99.90;;;;;;5023886;28;20104;-78
2021/04/18 09:11:49;;;;;;;13.50;11.30;;;11.80;99.90;;;;;;5038307;28;20025;-77
2021/04/18 09:14:36;;;;;;;15.65;13.95;;;11.90;99.90;;;;;;5036996;28;20113;-77
2021/04/18 09:17:21;;;;;;;12.90;11.57;;;11.90;99.90;;;;;;5018042;28;20091;-74
2021/04/18 09:19:52;;;;;;;14.23;12.77;;;11.90;99.90;;;;;;5031238;28;20499;-71
2021/04/18 09:22:32;;;;;;;15.63;12.75;;;11.90;99.90;;;;;;5013402;28;20557;-70
2021/04/18 09:25:07;;;;;;;15.20;13.27;;;12.10;99.90;;;;;;5030607;28;20040;-71
2021/04/18 09:27:36;;;;;;;14.88;13.23;;;12.00;99.90;;;;;;5031024;28;20097;-71
2021/04/18 09:30:14;;;;;;;15.20;13.18;;;12.00;99.90;;;;;;5031202;28;20083;-71
2021/04/18 09:32:44;;;;;;;14.52;12.60;;;12.10;99.90;;;;;;5031261;28;20022;-71
2021/04/18 09:35:11;;;;;;;11.85;9.85;;;12.10;99.90;;;;;;5031093;28;20037;-71
2021/04/18 09:37:42;;;;;;;14.50;12.95;;;12.20;99.90;;;;;;5030906;28;20021;-71
2021/04/18 09:40:15;;;;;;;15.20;13.50;;;12.00;99.90;;;;;;5028500;28;20129;-72
2021/04/18 09:42:44;;;;;;;18.40;13.80;;;12.10;99.90;;;;;;5031215;28;20037;-72
2021/04/18 09:45:23;;;;;;;16.45;13.23;;;12.10;99.90;;;;;;5030858;28;20060;-71
2021/04/18 09:47:51;;;;;;;16.08;13.52;;;12.00;99.90;;;;;;5030996;28;20534;-72
2021/04/18 09:50:24;;;;;;;15.05;13.48;;;12.10;99.90;;;;;;5030655;28;20499;-71
2021/04/18 09:52:51;;;;;;;12.70;11.43;;;12.30;99.90;;;;;;5031058;28;20053;-72
2021/04/18 09:55:24;;;;;;;14.32;12.90;;;12.30;99.90;;;;;;5030738;28;20022;-72
2021/04/18 09:57:51;;;;;;;13.57;12.25;;;12.10;99.90;;;;;;5031217;28;20026;-71
2021/04/18 10:00:29;;;;;;;12.55;11.35;;;12.30;99.90;;;;;;5030663;28;20088;-73
2021/04/18 10:03:13;;;;;;;14.13;12.63;;;12.50;99.90;;;;;;5013387;28;20516;-72
2021/04/18 10:05:45;;;;;;;12.20;10.90;;;12.70;99.90;;;;;;5016453;28;20119;-72
2021/04/18 10:08:29;;;;;;;13.45;12.13;;;12.50;99.90;;;;;;5030761;28;20048;-72
2021/04/18 10:11:07;;;;;;;13.70;11.80;;;12.50;99.90;;;;;;5030048;28;20022;-73
2021/04/18 10:13:43;;;;;;;13.18;11.93;;;12.60;99.90;;;;;;5030275;28;20106;-72
2021/04/18 10:16:11;;;;;;;13.82;12.40;;;12.80;99.90;;;;;;5030802;28;20059;-71
2021/04/18 10:18:42;;;;;;;14.85;13.27;;;13.00;99.90;;;;;;5030759;28;20041;-73
2021/04/18 10:21:22;;;;;;;13.70;11.48;;;13.00;99.90;;;;;;5015204;28;20033;-74
2021/04/18 10:23:50;;;;;;;14.40;12.90;;;12.80;99.90;;;;;;5033064;28;20021;-73
2021/04/18 10:26:18;;;;;;;15.10;13.63;;;13.00;99.90;;;;;;5014219;28;20510;-71
2021/04/18 10:28:49;;;;;;;14.43;11.98;;;13.00;99.90;;;;;;5032076;28;20325;-75
2021/04/18 10:31:17;;;;;;;20.23;14.18;;;12.80;99.90;;;;;;5033153;28;20028;-71
2021/04/18 10:33:44;;;;;;;13.00;11.77;;;12.90;99.90;;;;;;5033354;28;20391;-74
2021/04/18 10:36:12;;;;;;;13.07;11.88;;;13.10;99.90;;;;;;5031610;28;20438;-74
2021/04/18 10:38:37;;;;;;;13.07;11.70;;;13.20;99.90;;;;;;5033931;28;20014;-72
2021/04/18 10:41:03;;;;;;;11.50;10.40;;;13.10;99.90;;;;;;5030613;28;20430;-73
2021/04/18 10:43:29;;;;;;;14.77;10.68;;;13.10;99.90;;;;;;5030783;28;20030;-71
2021/04/18 10:45:55;;;;;;;15.20;11.65;;;13.10;99.90;;;;;;5032036;28;20033;-72
2021/04/18 10:48:21;;;;;;;12.25;11.05;;;13.00;99.90;;;;;;5030349;28;20670;-72
2021/04/18 10:50:47;;;;;;;14.23;12.73;;;12.90;99.90;;;;;;5030046;28;20079;-71
2021/04/18 10:53:13;;;;;;;15.30;12.85;;;12.90;99.90;;;;;;5034378;28;20032;-72
2021/04/18 10:55:39;;;;;;;12.98;11.60;;;12.80;99.90;;;;;;5034878;28;20029;-72
2021/04/18 10:58:05;;;;;;;11.88;10.68;;;12.90;99.90;;;;;;5033484;28;20025;-71
2021/04/18 11:00:31;;;;;;;12.70;11.32;;;12.80;99.90;;;;;;5029775;28;20036;-73
2021/04/18 11:02:57;;;;;;;11.75;10.52;;;12.70;99.90;;;;;;5030248;28;20045;-70
2021/04/18 11:05:23;;;;;;;11.07;10.00;;;12.60;99.90;;;;;;5011991;28;20021;-71
2021/04/18 11:07:49;;;;;;;12.32;10.63;;;12.60;99.90;;;;;;5030049;28;20103;-72
2021/04/18 11:10:15;;;;;;;12.07;10.68;;;12.60;99.90;;;;;;5030148;28;20072;-72
2021/04/18 11:12:42;;;;;;;11.13;10.00;;;12.60;99.90;;;;;;5030367;28;20483;-72
2021/04/18 11:15:12;;;;;;;12.05;10.55;;;12.70;99.90;;;;;;5030262;28;20025;-72
2021/04/18 11:17:38;;;;;;;12.48;8.32;;;12.80;99.90;;;;;;5030428;28;20026;-72
2021/04/18 11:20:12;;;;;;;10.55;9.48;;;12.90;99.90;;;;;;5031640;28;20086;-72
2021/04/18 11:22:38;;;;;;;9.57;8.60;;;13.10;99.90;;;;;;5038386;28;20483;-70
2021/04/18 11:25:10;;;;;;;10.05;9.00;;;12.80;99.90;;;;;;5036966;28;20191;-72
2021/04/18 11:27:36;;;;;;;8.30;7.50;;;12.70;99.90;;;;;;5034283;28;20033;-72
2021/04/18 11:30:08;;;;;;;9.73;8.73;;;12.80;99.90;;;;;;5033466;28;20399;-71
2021/04/18 11:32:34;;;;;;;9.40;7.28;;;12.90;99.90;;;;;;5034688;28;20025;-72
2021/04/18 11:34:59;;;;;;;9.43;8.23;;;12.90;99.90;;;;;;5033582;28;20053;-71
2021/04/18 11:37:26;;;;;;;10.82;9.73;;;12.80;99.90;;;;;;5034188;28;20032;-70
2021/04/18 11:39:51;;;;;;;8.75;7.95;;;12.80;99.90;;;;;;5034022;28;20026;-72
2021/04/18 11:42:17;;;;;;;9.40;8.50;;;12.90;99.90;;;;;;5033467;28;20040;-71
2021/04/18 11:44:43;;;;;;;9.50;8.60;;;13.00;99.90;;;;;;5033486;28;20034;-72
2021/04/18 11:47:09;;;;;;;8.85;8.05;;;12.90;99.90;;;;;;5033465;28;20096;-72
2021/04/18 11:49:35;;;;;;;10.15;9.15;;;12.90;99.90;;;;;;5032924;28;20043;-71
2021/04/18 11:52:01;;;;;;;10.57;9.48;;;12.90;99.90;;;;;;5032850;28;20423;-71
2021/04/18 11:54:27;;;;;;;8.60;7.75;;;13.00;99.90;;;;;;5033159;28;20553;-70
2021/04/18 11:56:53;;;;;;;10.35;9.45;;;13.10;99.90;;;;;;5015166;28;20089;-71
2021/04/18 11:59:18;;;;;;;11.00;8.32;;;13.20;99.90;;;;;;5033469;28;20032;-76
2021/04/18 12:01:44;;;;;;;13.38;8.50;;;13.30;99.90;;;;;;5033439;28;20025;-79
2021/04/18 12:04:10;;;;;;;10.05;8.32;;;13.50;99.90;;;;;;5033513;28;20064;-76
2021/04/18 12:06:35;;;;;;;9.45;7.68;;;13.80;99.90;;;;;;5033280;28;20029;-76
2021/04/18 12:09:01;;;;;;;10.82;7.78;;;13.70;99.90;;;;;;5033505;28;20036;-78
2021/04/18 12:11:27;;;;;;;9.70;7.63;;;13.30;99.90;;;;;;5032869;28;20052;-79
2021/04/18 12:13:53;;;;;;;8.77;7.97;;;13.40;99.90;;;;;;5033410;28;20045;-78
2021/04/18 12:16:18;;;;;;;7.45;6.80;;;13.40;99.90;;;;;;5033173;28;20030;-75
2021/04/18 12:18:45;;;;;;;8.60;7.55;;;13.40;99.90;;;;;;5033055;28;20022;-80
2021/04/18 12:21:10;;;;;;;12.57;7.85;;;13.60;99.90;;;;;;5032742;28;20028;-78
2021/04/18 12:23:37;;;;;;;7.97;7.10;;;13.70;99.90;;;;;;5032487;28;20029;-77
2021/04/18 12:26:03;;;;;;;7.90;6.38;;;13.80;99.90;;;;;;5032624;28;20029;-79
2021/04/18 12:28:29;;;;;;;7.80;7.00;;;13.90;99.90;;;;;;5033082;28;20029;-78
2021/04/18 12:30:56;;;;;;;7.10;6.45;;;13.70;99.90;;;;;;5032941;28;20081;-76
2021/04/18 12:33:21;;;;;;;7.88;7.13;;;13.60;99.90;;;;;;5027478;28;20025;-74
2021/04/18 12:35:47;;;;;;;9.98;8.73;;;13.80;99.90;;;;;;5030311;28;20024;-74